sensor_id;sensor_type;location;lat;lon;timestamp;temperature;humidity
12307;DHT22;6216;51.146;7.008;2022-10-16T00:01:36;15.60;99.90
12307;DHT22;6216;51.146;7.008;2022-10-16T00:04:04;15.60;99.90
12307;DHT22;6216;51.146;7.008;2022-10-16T00:06:32;15.60;99.90
12307;DHT22;6216;51.146;7.008;2022-10-16T00:09:01;15.50;99.90
12307;DHT22;6216;51.146;7.008;2022-10-16T00:11:31;15.50;99.90
12307;DHT22;6216;51.146;7.008;2022-10-16T00:14:01;15.50;99.90
12307;DHT22;6216;51.146;7.008;2022-10-16T00:16:29;15.50;99.90
12307;DHT22;6216;51.146;7.008;2022-10-16T00:18:57;15.40;99.90
12307;DHT22;6216;51.146;7.008;2022-10-16T00:21:30;15.40;99.90
12307;DHT22;6216;51.146;7.008;2022-10-16T00:24:01;15.40;99.90
12307;DHT22;6216;51.146;7.008;2022-10-16T00:26:31;15.40;99.90
12307;DHT22;6216;51.146;7.008;2022-10-16T00:28:59;15.40;99.90
12307;DHT22;6216;51.146;7.008;2022-10-16T00:31:27;15.40;99.90
12307;DHT22;6216;51.146;7.008;2022-10-16T00:33:56;15.40;99.90
12307;DHT22;6216;51.146;7.008;2022-10-16T00:36:25;15.40;99.90
12307;DHT22;6216;51.146;7.008;2022-10-16T00:38:55;15.40;99.90
12307;DHT22;6216;51.146;7.008;2022-10-16T00:41:26;15.40;99.90
12307;DHT22;6216;51.146;7.008;2022-10-16T00:43:55;15.30;99.90
12307;DHT22;6216;51.146;7.008;2022-10-16T00:46:26;15.30;99.90
12307;DHT22;6216;51.146;7.008;2022-10-16T00:48:58;15.30;99.90
12307;DHT22;6216;51.146;7.008;2022-10-16T00:51:31;15.30;99.90
12307;DHT22;6216;51.146;7.008;2022-10-16T00:53:59;15.30;99.90
12307;DHT22;6216;51.146;7.008;2022-10-16T00:56:29;15.30;99.90
12307;DHT22;6216;51.146;7.008;2022-10-16T00:58:57;15.30;99.90
12307;DHT22;6216;51.146;7.008;2022-10-16T01:01:26;15.30;99.90
12307;DHT22;6216;51.146;7.008;2022-10-16T01:03:54;15.30;99.90
12307;DHT22;6216;51.146;7.008;2022-10-16T01:06:24;15.30;99.90
12307;DHT22;6216;51.146;7.008;2022-10-16T01:09:09;15.30;99.90
12307;DHT22;6216;51.146;7.008;2022-10-16T01:11:45;15.30;99.90
12307;DHT22;6216;51.146;7.008;2022-10-16T01:14:21;15.30;99.90
12307;DHT22;6216;51.146;7.008;2022-10-16T01:16:55;15.30;99.90
12307;DHT22;6216;51.146;7.008;2022-10-16T01:19:40;15.30;99.90
12307;DHT22;6216;51.146;7.008;2022-10-16T01:22:12;15.30;99.90
12307;DHT22;6216;51.146;7.008;2022-10-16T01:24:44;15.30;99.90
12307;DHT22;6216;51.146;7.008;2022-10-16T01:27:17;15.30;99.90
12307;DHT22;6216;51.146;7.008;2022-10-16T01:29:52;15.30;99.90
12307;DHT22;6216;51.146;7.008;2022-10-16T01:32:28;15.20;99.90
12307;DHT22;6216;51.146;7.008;2022-10-16T01:35:02;15.20;99.90
12307;DHT22;6216;51.146;7.008;2022-10-16T01:37:36;15.20;99.90
12307;DHT22;6216;51.146;7.008;2022-10-16T01:40:09;15.20;99.90
12307;DHT22;6216;51.146;7.008;2022-10-16T01:42:41;15.10;99.90
12307;DHT22;6216;51.146;7.008;2022-10-16T01:45:13;15.10;99.90
12307;DHT22;6216;51.146;7.008;2022-10-16T01:47:45;15.10;99.90
12307;DHT22;6216;51.146;7.008;2022-10-16T01:50:16;15.10;99.90
12307;DHT22;6216;51.146;7.008;2022-10-16T01:52:48;15.10;99.90
12307;DHT22;6216;51.146;7.008;2022-10-16T01:55:21;15.00;99.90
12307;DHT22;6216;51.146;7.008;2022-10-16T01:57:52;15.00;99.90
12307;DHT22;6216;51.146;7.008;2022-10-16T02:00:22;15.00;99.90
12307;DHT22;6216;51.146;7.008;2022-10-16T02:02:53;15.00;99.90
12307;DHT22;6216;51.146;7.008;2022-10-16T02:05:25;15.00;99.90
12307;DHT22;6216;51.146;7.008;2022-10-16T02:07:54;15.10;99.90
12307;DHT22;6216;51.146;7.008;2022-10-16T02:10:26;15.10;99.90
12307;DHT22;6216;51.146;7.008;2022-10-16T02:13:03;15.10;99.90
12307;DHT22;6216;51.146;7.008;2022-10-16T02:15:33;15.00;99.90
12307;DHT22;6216;51.146;7.008;2022-10-16T02:18:01;15.00;99.90
12307;DHT22;6216;51.146;7.008;2022-10-16T02:20:34;14.90;99.90
12307;DHT22;6216;51.146;7.008;2022-10-16T02:23:03;14.90;99.90
12307;DHT22;6216;51.146;7.008;2022-10-16T02:25:35;14.90;99.90
12307;DHT22;6216;51.146;7.008;2022-10-16T02:28:09;14.90;99.90
12307;DHT22;6216;51.146;7.008;2022-10-16T02:30:43;14.90;99.90
12307;DHT22;6216;51.146;7.008;2022-10-16T02:33:14;14.90;99.90
12307;DHT22;6216;51.146;7.008;2022-10-16T02:35:44;14.90;99.90
12307;DHT22;6216;51.146;7.008;2022-10-16T02:38:14;14.80;99.90
12307;DHT22;6216;51.146;7.008;2022-10-16T02:40:43;14.80;99.90
12307;DHT22;6216;51.146;7.008;2022-10-16T02:43:12;14.80;99.90
12307;DHT22;6216;51.146;7.008;2022-10-16T02:45:40;14.80;99.90
12307;DHT22;6216;51.146;7.008;2022-10-16T02:48:08;14.80;99.90
12307;DHT22;6216;51.146;7.008;2022-10-16T02:50:36;14.80;99.90
12307;DHT22;6216;51.146;7.008;2022-10-16T02:53:04;14.80;99.90
12307;DHT22;6216;51.146;7.008;2022-10-16T02:55:32;14.70;99.90
12307;DHT22;6216;51.146;7.008;2022-10-16T02:58:00;14.70;99.90
12307;DHT22;6216;51.146;7.008;2022-10-16T03:00:29;14.70;99.90
12307;DHT22;6216;51.146;7.008;2022-10-16T03:02:57;14.70;99.90
12307;DHT22;6216;51.146;7.008;2022-10-16T03:05:25;14.70;99.90
12307;DHT22;6216;51.146;7.008;2022-10-16T03:07:53;14.70;99.90
12307;DHT22;6216;51.146;7.008;2022-10-16T03:10:20;14.70;99.90
12307;DHT22;6216;51.146;7.008;2022-10-16T03:12:48;14.70;99.90
12307;DHT22;6216;51.146;7.008;2022-10-16T03:15:16;14.70;99.90
12307;DHT22;6216;51.146;7.008;2022-10-16T03:17:45;14.70;99.90
12307;DHT22;6216;51.146;7.008;2022-10-16T03:20:13;14.70;99.90
12307;DHT22;6216;51.146;7.008;2022-10-16T03:22:41;14.70;99.90
12307;DHT22;6216;51.146;7.008;2022-10-16T03:25:09;14.70;99.90
12307;DHT22;6216;51.146;7.008;2022-10-16T03:27:37;14.70;99.90
12307;DHT22;6216;51.146;7.008;2022-10-16T03:30:06;14.70;99.90
12307;DHT22;6216;51.146;7.008;2022-10-16T03:32:34;14.70;99.90
12307;DHT22;6216;51.146;7.008;2022-10-16T03:35:08;14.70;99.90
12307;DHT22;6216;51.146;7.008;2022-10-16T03:37:36;14.70;99.90
12307;DHT22;6216;51.146;7.008;2022-10-16T03:40:05;14.70;99.90
12307;DHT22;6216;51.146;7.008;2022-10-16T03:42:33;14.70;99.90
12307;DHT22;6216;51.146;7.008;2022-10-16T03:45:01;14.70;99.90
12307;DHT22;6216;51.146;7.008;2022-10-16T03:47:29;14.70;99.90
12307;DHT22;6216;51.146;7.008;2022-10-16T03:49:57;14.70;99.90
12307;DHT22;6216;51.146;7.008;2022-10-16T03:52:26;14.70;99.90
12307;DHT22;6216;51.146;7.008;2022-10-16T03:54:54;14.70;99.90
12307;DHT22;6216;51.146;7.008;2022-10-16T03:57:22;14.70;99.90
12307;DHT22;6216;51.146;7.008;2022-10-16T03:59:50;14.70;99.90
12307;DHT22;6216;51.146;7.008;2022-10-16T04:02:18;14.80;99.90
12307;DHT22;6216;51.146;7.008;2022-10-16T04:04:46;14.70;99.90
12307;DHT22;6216;51.146;7.008;2022-10-16T04:07:14;14.70;99.90
12307;DHT22;6216;51.146;7.008;2022-10-16T04:09:43;14.80;99.90
12307;DHT22;6216;51.146;7.008;2022-10-16T04:12:11;14.70;99.90
12307;DHT22;6216;51.146;7.008;2022-10-16T04:14:39;14.70;99.90
12307;DHT22;6216;51.146;7.008;2022-10-16T04:17:07;14.70;99.90
12307;DHT22;6216;51.146;7.008;2022-10-16T04:19:35;14.70;99.90
12307;DHT22;6216;51.146;7.008;2022-10-16T04:22:02;14.60;99.90
12307;DHT22;6216;51.146;7.008;2022-10-16T04:24:30;14.60;99.90
12307;DHT22;6216;51.146;7.008;2022-10-16T04:26:59;14.60;99.90
12307;DHT22;6216;51.146;7.008;2022-10-16T04:29:27;14.60;99.90
12307;DHT22;6216;51.146;7.008;2022-10-16T04:31:55;14.60;99.90
12307;DHT22;6216;51.146;7.008;2022-10-16T04:34:23;14.60;99.90
12307;DHT22;6216;51.146;7.008;2022-10-16T04:36:51;14.50;99.90
12307;DHT22;6216;51.146;7.008;2022-10-16T04:39:19;14.50;99.90
12307;DHT22;6216;51.146;7.008;2022-10-16T04:41:47;14.50;99.90
12307;DHT22;6216;51.146;7.008;2022-10-16T04:44:16;14.50;99.90
12307;DHT22;6216;51.146;7.008;2022-10-16T04:46:44;14.50;99.90
12307;DHT22;6216;51.146;7.008;2022-10-16T04:49:12;14.50;99.90
12307;DHT22;6216;51.146;7.008;2022-10-16T04:51:39;14.50;99.90
12307;DHT22;6216;51.146;7.008;2022-10-16T04:54:08;14.40;99.90
12307;DHT22;6216;51.146;7.008;2022-10-16T04:56:36;14.40;99.90
12307;DHT22;6216;51.146;7.008;2022-10-16T04:59:09;14.40;99.90
12307;DHT22;6216;51.146;7.008;2022-10-16T05:01:39;14.40;99.90
12307;DHT22;6216;51.146;7.008;2022-10-16T05:04:06;14.40;99.90
12307;DHT22;6216;51.146;7.008;2022-10-16T05:06:34;14.40;99.90
12307;DHT22;6216;51.146;7.008;2022-10-16T05:09:02;14.50;99.90
12307;DHT22;6216;51.146;7.008;2022-10-16T05:11:30;14.40;99.90
12307;DHT22;6216;51.146;7.008;2022-10-16T05:13:58;14.40;99.90
12307;DHT22;6216;51.146;7.008;2022-10-16T05:16:26;14.40;99.90
12307;DHT22;6216;51.146;7.008;2022-10-16T05:18:55;14.40;99.90
12307;DHT22;6216;51.146;7.008;2022-10-16T05:21:43;14.40;99.90
12307;DHT22;6216;51.146;7.008;2022-10-16T05:24:11;14.40;99.90
12307;DHT22;6216;51.146;7.008;2022-10-16T05:26:39;14.40;99.90
12307;DHT22;6216;51.146;7.008;2022-10-16T05:29:07;14.40;99.90
12307;DHT22;6216;51.146;7.008;2022-10-16T05:31:35;14.40;99.90
12307;DHT22;6216;51.146;7.008;2022-10-16T05:34:04;14.30;99.90
12307;DHT22;6216;51.146;7.008;2022-10-16T05:36:32;14.30;99.90
12307;DHT22;6216;51.146;7.008;2022-10-16T05:39:00;14.30;99.90
12307;DHT22;6216;51.146;7.008;2022-10-16T05:41:28;14.30;99.90
12307;DHT22;6216;51.146;7.008;2022-10-16T05:43:55;14.30;99.90
12307;DHT22;6216;51.146;7.008;2022-10-16T05:46:23;14.40;99.90
12307;DHT22;6216;51.146;7.008;2022-10-16T05:48:52;14.30;99.90
12307;DHT22;6216;51.146;7.008;2022-10-16T05:51:22;14.30;99.90
12307;DHT22;6216;51.146;7.008;2022-10-16T05:53:49;14.30;99.90
12307;DHT22;6216;51.146;7.008;2022-10-16T05:56:18;14.30;99.90
12307;DHT22;6216;51.146;7.008;2022-10-16T05:58:46;14.30;99.90
12307;DHT22;6216;51.146;7.008;2022-10-16T06:01:15;14.30;99.90
12307;DHT22;6216;51.146;7.008;2022-10-16T06:03:44;14.30;99.90
12307;DHT22;6216;51.146;7.008;2022-10-16T06:06:13;14.40;99.90
12307;DHT22;6216;51.146;7.008;2022-10-16T06:08:44;14.40;99.90
12307;DHT22;6216;51.146;7.008;2022-10-16T06:11:14;14.30;99.90
12307;DHT22;6216;51.146;7.008;2022-10-16T06:13:43;14.30;99.90
12307;DHT22;6216;51.146;7.008;2022-10-16T06:16:13;14.30;99.90
12307;DHT22;6216;51.146;7.008;2022-10-16T06:18:41;14.30;99.90
12307;DHT22;6216;51.146;7.008;2022-10-16T06:21:10;14.40;99.90
12307;DHT22;6216;51.146;7.008;2022-10-16T06:23:39;14.40;99.90
12307;DHT22;6216;51.146;7.008;2022-10-16T06:26:10;14.50;99.90
12307;DHT22;6216;51.146;7.008;2022-10-16T06:28:38;14.50;99.90
12307;DHT22;6216;51.146;7.008;2022-10-16T06:31:07;14.50;99.90
12307;DHT22;6216;51.146;7.008;2022-10-16T06:33:36;14.50;99.90
12307;DHT22;6216;51.146;7.008;2022-10-16T06:36:05;14.50;99.90
12307;DHT22;6216;51.146;7.008;2022-10-16T06:38:35;14.50;99.90
12307;DHT22;6216;51.146;7.008;2022-10-16T06:41:03;14.60;99.90
12307;DHT22;6216;51.146;7.008;2022-10-16T06:43:33;14.60;99.90
12307;DHT22;6216;51.146;7.008;2022-10-16T06:46:03;14.60;99.90
12307;DHT22;6216;51.146;7.008;2022-10-16T06:48:32;14.60;99.90
12307;DHT22;6216;51.146;7.008;2022-10-16T06:51:01;14.60;99.90
12307;DHT22;6216;51.146;7.008;2022-10-16T06:53:32;14.70;99.90
12307;DHT22;6216;51.146;7.008;2022-10-16T06:56:10;14.70;99.90
12307;DHT22;6216;51.146;7.008;2022-10-16T06:58:40;14.70;99.90
12307;DHT22;6216;51.146;7.008;2022-10-16T07:01:09;14.70;99.90
12307;DHT22;6216;51.146;7.008;2022-10-16T07:03:38;14.70;99.90
12307;DHT22;6216;51.146;7.008;2022-10-16T07:06:08;14.80;99.90
12307;DHT22;6216;51.146;7.008;2022-10-16T07:08:38;14.80;99.90
12307;DHT22;6216;51.146;7.008;2022-10-16T07:11:08;14.80;99.90
12307;DHT22;6216;51.146;7.008;2022-10-16T07:13:37;14.90;99.90
12307;DHT22;6216;51.146;7.008;2022-10-16T07:16:07;14.90;99.90
12307;DHT22;6216;51.146;7.008;2022-10-16T07:18:35;14.90;99.90
12307;DHT22;6216;51.146;7.008;2022-10-16T07:21:06;15.00;99.90
12307;DHT22;6216;51.146;7.008;2022-10-16T07:23:35;15.00;99.90
12307;DHT22;6216;51.146;7.008;2022-10-16T07:26:03;15.00;99.90
12307;DHT22;6216;51.146;7.008;2022-10-16T07:28:32;15.00;99.90
12307;DHT22;6216;51.146;7.008;2022-10-16T07:31:01;15.00;99.90
12307;DHT22;6216;51.146;7.008;2022-10-16T07:33:31;15.00;99.90
12307;DHT22;6216;51.146;7.008;2022-10-16T07:35:59;15.10;99.90
12307;DHT22;6216;51.146;7.008;2022-10-16T07:38:30;15.10;99.90
12307;DHT22;6216;51.146;7.008;2022-10-16T07:40:58;15.20;99.90
12307;DHT22;6216;51.146;7.008;2022-10-16T07:43:27;15.20;99.90
12307;DHT22;6216;51.146;7.008;2022-10-16T07:45:55;15.20;99.90
12307;DHT22;6216;51.146;7.008;2022-10-16T07:48:30;15.20;99.90
12307;DHT22;6216;51.146;7.008;2022-10-16T07:51:00;15.20;99.90
12307;DHT22;6216;51.146;7.008;2022-10-16T07:53:29;15.20;99.90
12307;DHT22;6216;51.146;7.008;2022-10-16T07:55:57;15.20;99.90
12307;DHT22;6216;51.146;7.008;2022-10-16T07:58:26;15.30;99.90
12307;DHT22;6216;51.146;7.008;2022-10-16T08:00:54;15.40;99.90
12307;DHT22;6216;51.146;7.008;2022-10-16T08:03:23;15.50;99.90
12307;DHT22;6216;51.146;7.008;2022-10-16T08:05:52;15.70;99.90
12307;DHT22;6216;51.146;7.008;2022-10-16T08:08:20;15.80;99.90
12307;DHT22;6216;51.146;7.008;2022-10-16T08:10:47;16.00;99.90
12307;DHT22;6216;51.146;7.008;2022-10-16T08:13:16;16.20;99.90
12307;DHT22;6216;51.146;7.008;2022-10-16T08:15:45;16.40;99.90
12307;DHT22;6216;51.146;7.008;2022-10-16T08:18:14;16.50;99.90
12307;DHT22;6216;51.146;7.008;2022-10-16T08:20:43;16.60;99.90
12307;DHT22;6216;51.146;7.008;2022-10-16T08:23:12;16.80;99.90
12307;DHT22;6216;51.146;7.008;2022-10-16T08:25:41;17.00;99.90
12307;DHT22;6216;51.146;7.008;2022-10-16T08:28:10;17.10;99.90
12307;DHT22;6216;51.146;7.008;2022-10-16T08:30:38;17.40;99.90
12307;DHT22;6216;51.146;7.008;2022-10-16T08:33:06;17.50;99.90
12307;DHT22;6216;51.146;7.008;2022-10-16T08:35:34;17.70;99.90
12307;DHT22;6216;51.146;7.008;2022-10-16T08:38:03;17.80;99.90
12307;DHT22;6216;51.146;7.008;2022-10-16T08:40:34;17.90;99.90
12307;DHT22;6216;51.146;7.008;2022-10-16T08:43:14;17.90;99.90
12307;DHT22;6216;51.146;7.008;2022-10-16T08:46:04;18.10;99.90
12307;DHT22;6216;51.146;7.008;2022-10-16T08:48:41;18.10;99.90
12307;DHT22;6216;51.146;7.008;2022-10-16T08:51:13;18.20;99.90
12307;DHT22;6216;51.146;7.008;2022-10-16T08:53:46;18.30;99.90
12307;DHT22;6216;51.146;7.008;2022-10-16T08:56:18;18.40;99.90
12307;DHT22;6216;51.146;7.008;2022-10-16T08:58:47;18.40;99.90
12307;DHT22;6216;51.146;7.008;2022-10-16T09:01:21;18.50;99.90
12307;DHT22;6216;51.146;7.008;2022-10-16T09:04:04;18.60;99.90
12307;DHT22;6216;51.146;7.008;2022-10-16T09:06:41;18.60;99.90
12307;DHT22;6216;51.146;7.008;2022-10-16T09:09:22;18.70;99.90
12307;DHT22;6216;51.146;7.008;2022-10-16T09:11:59;18.90;99.90
12307;DHT22;6216;51.146;7.008;2022-10-16T09:14:45;19.00;99.90
12307;DHT22;6216;51.146;7.008;2022-10-16T09:17:24;19.00;99.90
12307;DHT22;6216;51.146;7.008;2022-10-16T09:19:59;19.00;99.90
12307;DHT22;6216;51.146;7.008;2022-10-16T09:22:31;18.90;99.90
12307;DHT22;6216;51.146;7.008;2022-10-16T09:25:01;18.90;99.90
12307;DHT22;6216;51.146;7.008;2022-10-16T09:27:38;18.90;99.90
12307;DHT22;6216;51.146;7.008;2022-10-16T09:30:12;19.10;99.90
12307;DHT22;6216;51.146;7.008;2022-10-16T09:32:41;19.10;99.90
12307;DHT22;6216;51.146;7.008;2022-10-16T09:35:15;19.10;99.90
12307;DHT22;6216;51.146;7.008;2022-10-16T09:37:46;19.10;99.90
12307;DHT22;6216;51.146;7.008;2022-10-16T09:40:25;19.20;99.90
12307;DHT22;6216;51.146;7.008;2022-10-16T09:43:12;19.30;99.90
12307;DHT22;6216;51.146;7.008;2022-10-16T09:45:54;19.30;99.90
12307;DHT22;6216;51.146;7.008;2022-10-16T09:48:22;19.40;99.90
12307;DHT22;6216;51.146;7.008;2022-10-16T09:50:58;19.40;99.90
12307;DHT22;6216;51.146;7.008;2022-10-16T09:53:38;19.50;99.90
12307;DHT22;6216;51.146;7.008;2022-10-16T09:56:06;19.60;99.90
12307;DHT22;6216;51.146;7.008;2022-10-16T09:58:49;19.60;99.90
12307;DHT22;6216;51.146;7.008;2022-10-16T10:01:17;19.80;99.90
12307;DHT22;6216;51.146;7.008;2022-10-16T10:03:46;20.00;99.90
12307;DHT22;6216;51.146;7.008;2022-10-16T10:06:18;20.00;99.90
12307;DHT22;6216;51.146;7.008;2022-10-16T10:08:56;20.20;99.90
12307;DHT22;6216;51.146;7.008;2022-10-16T10:11:50;20.30;99.90
12307;DHT22;6216;51.146;7.008;2022-10-16T10:14:23;20.40;99.90
12307;DHT22;6216;51.146;7.008;2022-10-16T10:16:52;20.50;99.90
12307;DHT22;6216;51.146;7.008;2022-10-16T10:19:22;20.60;99.90
12307;DHT22;6216;51.146;7.008;2022-10-16T10:21:54;20.60;99.90
12307;DHT22;6216;51.146;7.008;2022-10-16T10:24:22;20.80;99.90
12307;DHT22;6216;51.146;7.008;2022-10-16T10:26:54;20.80;99.90
12307;DHT22;6216;51.146;7.008;2022-10-16T10:29:35;20.80;99.90
12307;DHT22;6216;51.146;7.008;2022-10-16T10:32:15;20.90;99.90
12307;DHT22;6216;51.146;7.008;2022-10-16T10:34:56;21.10;99.90
12307;DHT22;6216;51.146;7.008;2022-10-16T10:37:51;21.00;99.90
12307;DHT22;6216;51.146;7.008;2022-10-16T10:40:30;21.10;99.90
12307;DHT22;6216;51.146;7.008;2022-10-16T10:43:06;21.20;99.90
12307;DHT22;6216;51.146;7.008;2022-10-16T10:45:43;21.20;99.90
12307;DHT22;6216;51.146;7.008;2022-10-16T10:48:28;21.10;99.90
12307;DHT22;6216;51.146;7.008;2022-10-16T10:51:04;21.10;99.90
12307;DHT22;6216;51.146;7.008;2022-10-16T10:53:43;21.00;99.90
12307;DHT22;6216;51.146;7.008;2022-10-16T10:56:24;21.20;99.90
12307;DHT22;6216;51.146;7.008;2022-10-16T10:59:09;21.40;99.90
12307;DHT22;6216;51.146;7.008;2022-10-16T11:01:49;21.40;99.90
12307;DHT22;6216;51.146;7.008;2022-10-16T11:04:34;21.30;99.90
12307;DHT22;6216;51.146;7.008;2022-10-16T11:07:07;21.30;99.90
12307;DHT22;6216;51.146;7.008;2022-10-16T11:09:41;21.50;99.90
12307;DHT22;6216;51.146;7.008;2022-10-16T11:12:15;21.60;99.90
12307;DHT22;6216;51.146;7.008;2022-10-16T11:14:49;21.70;99.90
12307;DHT22;6216;51.146;7.008;2022-10-16T11:17:25;21.90;99.90
12307;DHT22;6216;51.146;7.008;2022-10-16T11:19:59;23.00;99.90
12307;DHT22;6216;51.146;7.008;2022-10-16T11:22:33;23.40;99.90
12307;DHT22;6216;51.146;7.008;2022-10-16T11:25:06;23.30;99.90
12307;DHT22;6216;51.146;7.008;2022-10-16T11:27:43;23.20;99.90
12307;DHT22;6216;51.146;7.008;2022-10-16T11:30:16;23.20;99.90
12307;DHT22;6216;51.146;7.008;2022-10-16T11:33:04;23.20;99.90
12307;DHT22;6216;51.146;7.008;2022-10-16T11:35:39;23.20;99.90
12307;DHT22;6216;51.146;7.008;2022-10-16T11:38:14;23.20;99.90
12307;DHT22;6216;51.146;7.008;2022-10-16T11:40:46;23.10;99.90
12307;DHT22;6216;51.146;7.008;2022-10-16T11:43:19;23.10;99.90
12307;DHT22;6216;51.146;7.008;2022-10-16T11:45:51;23.70;99.90
12307;DHT22;6216;51.146;7.008;2022-10-16T11:48:32;24.40;99.90
12307;DHT22;6216;51.146;7.008;2022-10-16T11:51:06;25.00;97.70
12307;DHT22;6216;51.146;7.008;2022-10-16T11:53:45;25.00;97.60
12307;DHT22;6216;51.146;7.008;2022-10-16T11:56:16;24.70;96.70
12307;DHT22;6216;51.146;7.008;2022-10-16T11:58:52;25.00;95.70
12307;DHT22;6216;51.146;7.008;2022-10-16T12:01:27;25.80;96.40
12307;DHT22;6216;51.146;7.008;2022-10-16T12:04:12;26.10;94.00
12307;DHT22;6216;51.146;7.008;2022-10-16T12:06:44;26.20;92.50
12307;DHT22;6216;51.146;7.008;2022-10-16T12:09:20;26.30;92.20
12307;DHT22;6216;51.146;7.008;2022-10-16T12:11:49;26.20;91.70
12307;DHT22;6216;51.146;7.008;2022-10-16T12:14:33;26.00;91.60
12307;DHT22;6216;51.146;7.008;2022-10-16T12:17:26;25.70;91.70
12307;DHT22;6216;51.146;7.008;2022-10-16T12:20:01;25.70;92.30
12307;DHT22;6216;51.146;7.008;2022-10-16T12:22:30;25.80;93.40
12307;DHT22;6216;51.146;7.008;2022-10-16T12:25:05;26.20;92.40
12307;DHT22;6216;51.146;7.008;2022-10-16T12:27:34;27.30;91.50
12307;DHT22;6216;51.146;7.008;2022-10-16T12:30:04;28.00;90.50
12307;DHT22;6216;51.146;7.008;2022-10-16T12:32:36;28.30;83.00
12307;DHT22;6216;51.146;7.008;2022-10-16T12:35:20;28.20;85.10
12307;DHT22;6216;51.146;7.008;2022-10-16T12:37:50;29.20;85.60
12307;DHT22;6216;51.146;7.008;2022-10-16T12:40:26;30.40;79.70
12307;DHT22;6216;51.146;7.008;2022-10-16T12:42:55;31.50;73.00
12307;DHT22;6216;51.146;7.008;2022-10-16T12:45:29;31.50;71.80
12307;DHT22;6216;51.146;7.008;2022-10-16T12:47:58;30.90;68.60
12307;DHT22;6216;51.146;7.008;2022-10-16T12:50:34;30.50;70.00
12307;DHT22;6216;51.146;7.008;2022-10-16T12:53:16;30.80;71.20
12307;DHT22;6216;51.146;7.008;2022-10-16T12:55:52;31.10;69.70
12307;DHT22;6216;51.146;7.008;2022-10-16T13:01:26;31.60;67.50
12307;DHT22;6216;51.146;7.008;2022-10-16T13:07:03;30.40;67.40
12307;DHT22;6216;51.146;7.008;2022-10-16T13:09:43;29.90;69.30
12307;DHT22;6216;51.146;7.008;2022-10-16T13:12:27;29.90;70.20
12307;DHT22;6216;51.146;7.008;2022-10-16T13:15:18;31.20;70.30
12307;DHT22;6216;51.146;7.008;2022-10-16T13:17:55;32.50;63.60
12307;DHT22;6216;51.146;7.008;2022-10-16T13:20:31;32.80;62.80
12307;DHT22;6216;51.146;7.008;2022-10-16T13:23:11;33.20;62.80
12307;DHT22;6216;51.146;7.008;2022-10-16T13:25:51;33.50;61.00
12307;DHT22;6216;51.146;7.008;2022-10-16T13:28:28;33.40;55.70
12307;DHT22;6216;51.146;7.008;2022-10-16T13:30:58;33.70;56.50
12307;DHT22;6216;51.146;7.008;2022-10-16T13:33:31;34.30;55.70
12307;DHT22;6216;51.146;7.008;2022-10-16T13:36:00;35.00;55.00
12307;DHT22;6216;51.146;7.008;2022-10-16T13:38:30;35.60;54.00
12307;DHT22;6216;51.146;7.008;2022-10-16T13:41:00;35.70;52.30
12307;DHT22;6216;51.146;7.008;2022-10-16T13:43:31;35.70;50.10
12307;DHT22;6216;51.146;7.008;2022-10-16T13:46:02;36.20;49.40
12307;DHT22;6216;51.146;7.008;2022-10-16T13:48:31;36.60;47.80
12307;DHT22;6216;51.146;7.008;2022-10-16T13:51:05;36.60;46.80
12307;DHT22;6216;51.146;7.008;2022-10-16T13:53:35;36.80;46.40
12307;DHT22;6216;51.146;7.008;2022-10-16T13:56:04;36.90;47.10
12307;DHT22;6216;51.146;7.008;2022-10-16T13:58:33;37.40;45.00
12307;DHT22;6216;51.146;7.008;2022-10-16T14:01:02;37.90;45.00
12307;DHT22;6216;51.146;7.008;2022-10-16T14:03:32;37.90;43.60
12307;DHT22;6216;51.146;7.008;2022-10-16T14:06:06;37.60;44.00
12307;DHT22;6216;51.146;7.008;2022-10-16T14:08:43;36.90;43.70
12307;DHT22;6216;51.146;7.008;2022-10-16T14:11:12;35.70;43.80
12307;DHT22;6216;51.146;7.008;2022-10-16T14:13:44;34.60;45.10
12307;DHT22;6216;51.146;7.008;2022-10-16T14:16:18;33.50;46.40
12307;DHT22;6216;51.146;7.008;2022-10-16T14:18:54;32.20;47.70
12307;DHT22;6216;51.146;7.008;2022-10-16T14:21:23;30.90;50.00
12307;DHT22;6216;51.146;7.008;2022-10-16T14:23:55;30.00;52.50
12307;DHT22;6216;51.146;7.008;2022-10-16T14:26:25;29.20;55.00
12307;DHT22;6216;51.146;7.008;2022-10-16T14:29:13;28.50;56.80
12307;DHT22;6216;51.146;7.008;2022-10-16T14:31:41;27.80;59.10
12307;DHT22;6216;51.146;7.008;2022-10-16T14:34:27;27.40;61.40
12307;DHT22;6216;51.146;7.008;2022-10-16T14:36:58;27.00;63.50
12307;DHT22;6216;51.146;7.008;2022-10-16T14:39:28;26.60;65.90
12307;DHT22;6216;51.146;7.008;2022-10-16T14:41:57;26.30;67.90
12307;DHT22;6216;51.146;7.008;2022-10-16T14:44:30;25.90;70.00
12307;DHT22;6216;51.146;7.008;2022-10-16T14:47:07;25.60;72.00
12307;DHT22;6216;51.146;7.008;2022-10-16T14:49:36;25.40;73.90
12307;DHT22;6216;51.146;7.008;2022-10-16T14:52:09;25.20;76.00
12307;DHT22;6216;51.146;7.008;2022-10-16T14:54:39;25.00;77.80
12307;DHT22;6216;51.146;7.008;2022-10-16T14:57:16;24.80;78.60
12307;DHT22;6216;51.146;7.008;2022-10-16T14:59:45;24.50;80.60
12307;DHT22;6216;51.146;7.008;2022-10-16T15:02:19;24.40;82.30
12307;DHT22;6216;51.146;7.008;2022-10-16T15:04:49;24.20;83.90
12307;DHT22;6216;51.146;7.008;2022-10-16T15:07:17;24.10;85.50
12307;DHT22;6216;51.146;7.008;2022-10-16T15:09:46;23.90;87.30
12307;DHT22;6216;51.146;7.008;2022-10-16T15:12:15;23.80;89.10
12307;DHT22;6216;51.146;7.008;2022-10-16T15:14:43;23.70;90.40
12307;DHT22;6216;51.146;7.008;2022-10-16T15:17:11;23.50;91.30
12307;DHT22;6216;51.146;7.008;2022-10-16T15:19:44;23.50;92.30
12307;DHT22;6216;51.146;7.008;2022-10-16T15:22:12;23.40;92.60
12307;DHT22;6216;51.146;7.008;2022-10-16T15:24:40;23.30;93.70
12307;DHT22;6216;51.146;7.008;2022-10-16T15:27:09;23.10;94.20
12307;DHT22;6216;51.146;7.008;2022-10-16T15:29:37;23.00;94.90
12307;DHT22;6216;51.146;7.008;2022-10-16T15:32:05;22.90;95.90
12307;DHT22;6216;51.146;7.008;2022-10-16T15:34:33;22.90;96.90
12307;DHT22;6216;51.146;7.008;2022-10-16T15:37:03;22.80;97.30
12307;DHT22;6216;51.146;7.008;2022-10-16T15:39:31;22.70;97.90
12307;DHT22;6216;51.146;7.008;2022-10-16T15:42:04;22.70;98.60
12307;DHT22;6216;51.146;7.008;2022-10-16T15:44:34;22.60;99.40
12307;DHT22;6216;51.146;7.008;2022-10-16T15:47:02;22.50;99.90
12307;DHT22;6216;51.146;7.008;2022-10-16T15:49:30;22.40;99.90
12307;DHT22;6216;51.146;7.008;2022-10-16T15:51:58;22.30;99.90
12307;DHT22;6216;51.146;7.008;2022-10-16T15:54:25;22.30;99.90
12307;DHT22;6216;51.146;7.008;2022-10-16T15:56:53;22.20;99.90
12307;DHT22;6216;51.146;7.008;2022-10-16T15:59:21;22.10;99.90
12307;DHT22;6216;51.146;7.008;2022-10-16T16:01:50;22.10;99.90
12307;DHT22;6216;51.146;7.008;2022-10-16T16:04:18;21.90;99.90
12307;DHT22;6216;51.146;7.008;2022-10-16T16:07:07;21.80;99.90
12307;DHT22;6216;51.146;7.008;2022-10-16T16:09:35;21.60;99.90
12307;DHT22;6216;51.146;7.008;2022-10-16T16:12:03;21.50;99.90
12307;DHT22;6216;51.146;7.008;2022-10-16T16:14:31;21.50;99.90
12307;DHT22;6216;51.146;7.008;2022-10-16T16:17:00;21.40;99.90
12307;DHT22;6216;51.146;7.008;2022-10-16T16:19:28;21.40;99.90